Leary, Texas
Current Conditions -  °F | °C
As of 4:53 PM on Wednesday 17 Dec 2014 (Local Time) from KTXK Reporting Station
Overcast Overcast  
Wind Chill: 37°   Ceiling: 6000
Heat Index: 41°   Visibility: 10mi
Dew Point: 33°   Wind: 6mph
Humidity: 73%   Direction: 70°ENE
Pressure: 30.18"   Gusts: NA
Location:  33.474°N, 94.2882°W
Report Text: KTXK 172253Z 07005KT 10SM BKN060 OVC080 05/01 A3018 RMK AO2 SLP221 T00500006
Loading
Personal Weather Stations






























Interactive Weather Map New forecast layout! Learn more

10-Day Weather Forecast

Advertisements
Track Severe Weather on mobile